sensor_id;sensor_type;location;lat;lon;timestamp;pressure;altitude;pressure_sealevel;temperature;humidity
48216;BME280;34005;48.844;10.098;2023-07-20T00:00:20;96503.69;;;21.95;44.75
48216;BME280;34005;48.844;10.098;2023-07-20T00:02:50;96502.66;;;21.96;44.19
48216;BME280;34005;48.844;10.098;2023-07-20T00:05:18;96512.19;;;21.92;44.42
48216;BME280;34005;48.844;10.098;2023-07-20T00:07:49;96518.00;;;21.89;44.31
48216;BME280;34005;48.844;10.098;2023-07-20T00:10:18;96514.81;;;21.87;44.69
48216;BME280;34005;48.844;10.098;2023-07-20T00:12:46;96518.50;;;21.86;44.69
48216;BME280;34005;48.844;10.098;2023-07-20T00:15:14;96515.59;;;21.87;44.54
48216;BME280;34005;48.844;10.098;2023-07-20T00:17:41;96512.72;;;21.89;44.86
48216;BME280;34005;48.844;10.098;2023-07-20T00:20:10;96510.56;;;21.91;44.63
48216;BME280;34005;48.844;10.098;2023-07-20T00:22:38;96499.94;;;21.91;44.62
48216;BME280;34005;48.844;10.098;2023-07-20T00:25:08;96498.09;;;21.91;44.77
48216;BME280;34005;48.844;10.098;2023-07-20T00:27:37;96508.72;;;21.91;44.52
48216;BME280;34005;48.844;10.098;2023-07-20T00:30:06;96516.41;;;21.93;44.75
48216;BME280;34005;48.844;10.098;2023-07-20T00:32:34;96510.31;;;21.92;44.52
48216;BME280;34005;48.844;10.098;2023-07-20T00:35:02;96513.75;;;21.93;45.01
48216;BME280;34005;48.844;10.098;2023-07-20T00:37:29;96508.44;;;21.93;44.93
48216;BME280;34005;48.844;10.098;2023-07-20T00:39:57;96502.09;;;21.94;44.76
48216;BME280;34005;48.844;10.098;2023-07-20T00:42:26;96515.38;;;21.94;44.65
48216;BME280;34005;48.844;10.098;2023-07-20T00:44:53;96500.25;;;21.94;44.62
48216;BME280;34005;48.844;10.098;2023-07-20T00:47:20;96503.16;;;21.93;44.53
48216;BME280;34005;48.844;10.098;2023-07-20T00:49:48;96493.34;;;21.93;44.79
48216;BME280;34005;48.844;10.098;2023-07-20T00:52:16;96502.91;;;21.94;44.81
48216;BME280;34005;48.844;10.098;2023-07-20T00:54:47;96505.31;;;21.96;45.05
48216;BME280;34005;48.844;10.098;2023-07-20T00:57:15;96515.38;;;21.94;45.25
48216;BME280;34005;48.844;10.098;2023-07-20T00:59:44;96510.31;;;21.92;44.38
48216;BME280;34005;48.844;10.098;2023-07-20T01:02:12;96502.59;;;21.91;43.46
48216;BME280;34005;48.844;10.098;2023-07-20T01:04:40;96509.75;;;21.85;42.99
48216;BME280;34005;48.844;10.098;2023-07-20T01:07:23;96508.88;;;21.74;43.01
48216;BME280;34005;48.844;10.098;2023-07-20T01:09:58;96506.75;;;21.71;43.33
48216;BME280;34005;48.844;10.098;2023-07-20T01:12:33;96504.81;;;21.67;42.88
48216;BME280;34005;48.844;10.098;2023-07-20T01:15:05;96512.53;;;21.63;42.71
48216;BME280;34005;48.844;10.098;2023-07-20T01:17:34;96502.59;;;21.53;42.66
48216;BME280;34005;48.844;10.098;2023-07-20T01:20:02;96510.84;;;21.52;43.31
48216;BME280;34005;48.844;10.098;2023-07-20T01:22:58;96512.41;;;21.48;43.28
48216;BME280;34005;48.844;10.098;2023-07-20T01:25:45;96511.75;;;21.40;42.72
48216;BME280;34005;48.844;10.098;2023-07-20T01:31:24;96505.59;;;21.30;42.60
48216;BME280;34005;48.844;10.098;2023-07-20T01:33:55;96506.59;;;21.24;42.96
48216;BME280;34005;48.844;10.098;2023-07-20T01:36:24;96504.69;;;21.19;44.08
48216;BME280;34005;48.844;10.098;2023-07-20T01:38:54;96501.19;;;21.13;43.06
48216;BME280;34005;48.844;10.098;2023-07-20T01:41:22;96503.50;;;21.05;42.86
48216;BME280;34005;48.844;10.098;2023-07-20T01:43:50;96511.41;;;20.99;43.35
48216;BME280;34005;48.844;10.098;2023-07-20T01:46:17;96504.69;;;20.92;43.40
48216;BME280;34005;48.844;10.098;2023-07-20T01:48:47;96506.19;;;20.83;43.73
48216;BME280;34005;48.844;10.098;2023-07-20T01:51:14;96501.09;;;20.76;43.79
48216;BME280;34005;48.844;10.098;2023-07-20T01:53:44;96505.84;;;20.74;44.10
48216;BME280;34005;48.844;10.098;2023-07-20T01:56:11;96507.09;;;20.66;44.07
48216;BME280;34005;48.844;10.098;2023-07-20T01:58:39;96515.91;;;20.55;44.49
48216;BME280;34005;48.844;10.098;2023-07-20T02:01:07;96518.28;;;20.51;44.77
48216;BME280;34005;48.844;10.098;2023-07-20T02:03:34;96514.81;;;20.51;44.88
48216;BME280;34005;48.844;10.098;2023-07-20T02:06:03;96518.19;;;20.46;45.08
48216;BME280;34005;48.844;10.098;2023-07-20T02:08:31;96521.84;;;20.40;44.99
48216;BME280;34005;48.844;10.098;2023-07-20T02:10:59;96516.00;;;20.38;45.40
48216;BME280;34005;48.844;10.098;2023-07-20T02:13:26;96525.50;;;20.34;45.51
48216;BME280;34005;48.844;10.098;2023-07-20T02:15:54;96522.75;;;20.29;45.96
48216;BME280;34005;48.844;10.098;2023-07-20T02:18:21;96523.75;;;20.23;45.85
48216;BME280;34005;48.844;10.098;2023-07-20T02:20:49;96517.34;;;20.19;46.46
48216;BME280;34005;48.844;10.098;2023-07-20T02:23:19;96524.22;;;20.20;46.55
48216;BME280;34005;48.844;10.098;2023-07-20T02:25:46;96522.63;;;20.19;46.45
48216;BME280;34005;48.844;10.098;2023-07-20T02:28:15;96525.19;;;20.13;46.40
48216;BME280;34005;48.844;10.098;2023-07-20T02:30:42;96526.50;;;20.11;46.38
48216;BME280;34005;48.844;10.098;2023-07-20T02:33:10;96516.06;;;20.04;46.21
48216;BME280;34005;48.844;10.098;2023-07-20T02:35:38;96521.06;;;20.01;46.63
48216;BME280;34005;48.844;10.098;2023-07-20T02:38:05;96522.44;;;20.03;46.78
48216;BME280;34005;48.844;10.098;2023-07-20T02:40:34;96532.53;;;20.06;47.00
48216;BME280;34005;48.844;10.098;2023-07-20T02:43:02;96533.66;;;20.10;46.79
48216;BME280;34005;48.844;10.098;2023-07-20T02:45:30;96535.78;;;20.13;46.41
48216;BME280;34005;48.844;10.098;2023-07-20T02:47:57;96536.06;;;20.12;46.44
48216;BME280;34005;48.844;10.098;2023-07-20T02:50:25;96527.97;;;20.02;47.15
48216;BME280;34005;48.844;10.098;2023-07-20T02:52:52;96533.44;;;19.95;47.21
48216;BME280;34005;48.844;10.098;2023-07-20T02:55:20;96534.22;;;19.95;47.40
48216;BME280;34005;48.844;10.098;2023-07-20T02:57:49;96537.09;;;19.94;46.81
48216;BME280;34005;48.844;10.098;2023-07-20T03:00:17;96541.53;;;19.88;47.02
48216;BME280;34005;48.844;10.098;2023-07-20T03:02:45;96547.56;;;19.84;47.11
48216;BME280;34005;48.844;10.098;2023-07-20T03:05:14;96537.38;;;19.75;47.28
48216;BME280;34005;48.844;10.098;2023-07-20T03:07:43;96551.09;;;19.72;47.51
48216;BME280;34005;48.844;10.098;2023-07-20T03:10:11;96540.75;;;19.71;47.37
48216;BME280;34005;48.844;10.098;2023-07-20T03:12:39;96539.81;;;19.65;47.78
48216;BME280;34005;48.844;10.098;2023-07-20T03:15:09;96551.47;;;19.64;47.73
48216;BME280;34005;48.844;10.098;2023-07-20T03:17:37;96558.91;;;19.67;48.08
48216;BME280;34005;48.844;10.098;2023-07-20T03:20:06;96551.09;;;19.72;47.79
48216;BME280;34005;48.844;10.098;2023-07-20T03:22:35;96553.81;;;19.78;47.55
48216;BME280;34005;48.844;10.098;2023-07-20T03:25:05;96554.72;;;19.83;47.69
48216;BME280;34005;48.844;10.098;2023-07-20T03:27:32;96556.13;;;19.91;47.37
48216;BME280;34005;48.844;10.098;2023-07-20T03:30:00;96558.84;;;19.96;47.99
48216;BME280;34005;48.844;10.098;2023-07-20T03:32:29;96561.03;;;19.99;47.69
48216;BME280;34005;48.844;10.098;2023-07-20T03:34:57;96565.25;;;20.00;47.52
48216;BME280;34005;48.844;10.098;2023-07-20T03:37:24;96555.72;;;19.99;47.72
48216;BME280;34005;48.844;10.098;2023-07-20T03:39:52;96556.28;;;20.01;47.55
48216;BME280;34005;48.844;10.098;2023-07-20T03:42:19;96560.84;;;20.06;47.46
48216;BME280;34005;48.844;10.098;2023-07-20T03:44:47;96566.78;;;20.13;46.93
48216;BME280;34005;48.844;10.098;2023-07-20T03:47:14;96563.09;;;20.14;47.30
48216;BME280;34005;48.844;10.098;2023-07-20T03:49:43;96570.22;;;20.13;47.00
48216;BME280;34005;48.844;10.098;2023-07-20T03:52:11;96573.38;;;20.10;47.45
48216;BME280;34005;48.844;10.098;2023-07-20T03:54:39;96570.09;;;20.03;47.26
48216;BME280;34005;48.844;10.098;2023-07-20T03:57:06;96564.97;;;19.96;47.58
48216;BME280;34005;48.844;10.098;2023-07-20T03:59:36;96571.53;;;19.94;48.25
48216;BME280;34005;48.844;10.098;2023-07-20T04:02:04;96571.00;;;19.92;47.53
48216;BME280;34005;48.844;10.098;2023-07-20T04:04:32;96578.59;;;19.88;47.77
48216;BME280;34005;48.844;10.098;2023-07-20T04:07:01;96576.13;;;19.82;48.10
48216;BME280;34005;48.844;10.098;2023-07-20T04:09:29;96580.78;;;19.74;49.70
48216;BME280;34005;48.844;10.098;2023-07-20T04:11:56;96581.47;;;19.70;48.30
48216;BME280;34005;48.844;10.098;2023-07-20T04:14:24;96582.66;;;19.62;48.57
48216;BME280;34005;48.844;10.098;2023-07-20T04:16:51;96575.66;;;19.56;48.71
48216;BME280;34005;48.844;10.098;2023-07-20T04:44:47;96592.06;;;19.70;49.43
48216;BME280;34005;48.844;10.098;2023-07-20T04:47:21;96592.28;;;19.68;48.94
48216;BME280;34005;48.844;10.098;2023-07-20T04:50:17;96606.53;;;19.67;49.93
48216;BME280;34005;48.844;10.098;2023-07-20T04:53:11;96601.84;;;19.69;49.30
48216;BME280;34005;48.844;10.098;2023-07-20T05:16:47;96595.53;;;19.70;48.67
48216;BME280;34005;48.844;10.098;2023-07-20T05:19:14;96587.31;;;19.72;48.88
48216;BME280;34005;48.844;10.098;2023-07-20T05:21:42;96589.75;;;19.73;48.96
48216;BME280;34005;48.844;10.098;2023-07-20T05:24:10;96589.25;;;19.76;48.76
48216;BME280;34005;48.844;10.098;2023-07-20T05:26:37;96591.34;;;19.74;49.29
48216;BME280;34005;48.844;10.098;2023-07-20T05:29:05;96590.31;;;19.75;49.07
48216;BME280;34005;48.844;10.098;2023-07-20T05:31:32;96598.47;;;19.74;48.94
48216;BME280;34005;48.844;10.098;2023-07-20T05:34:02;96600.31;;;19.73;49.35
48216;BME280;34005;48.844;10.098;2023-07-20T05:36:30;96592.16;;;19.75;49.44
48216;BME280;34005;48.844;10.098;2023-07-20T05:38:57;96593.19;;;19.74;48.66
48216;BME280;34005;48.844;10.098;2023-07-20T05:41:25;96590.78;;;19.72;48.55
48216;BME280;34005;48.844;10.098;2023-07-20T05:43:53;96595.03;;;19.73;48.48
48216;BME280;34005;48.844;10.098;2023-07-20T05:46:21;96596.88;;;19.73;48.52
48216;BME280;34005;48.844;10.098;2023-07-20T05:48:53;96591.34;;;19.74;48.63
48216;BME280;34005;48.844;10.098;2023-07-20T05:51:22;96592.94;;;19.75;49.06
48216;BME280;34005;48.844;10.098;2023-07-20T05:53:50;96592.94;;;19.75;49.20
48216;BME280;34005;48.844;10.098;2023-07-20T05:56:18;96591.66;;;19.78;49.17
48216;BME280;34005;48.844;10.098;2023-07-20T05:58:46;96600.41;;;19.79;48.93
48216;BME280;34005;48.844;10.098;2023-07-20T06:01:14;96598.75;;;19.72;48.72
48216;BME280;34005;48.844;10.098;2023-07-20T06:03:42;96600.69;;;19.65;49.37
48216;BME280;34005;48.844;10.098;2023-07-20T06:06:10;96606.81;;;19.66;49.80
48216;BME280;34005;48.844;10.098;2023-07-20T06:08:40;96609.19;;;19.67;49.48
48216;BME280;34005;48.844;10.098;2023-07-20T06:11:08;96600.44;;;19.67;49.52
48216;BME280;34005;48.844;10.098;2023-07-20T06:13:36;96602.06;;;19.68;49.82
48216;BME280;34005;48.844;10.098;2023-07-20T06:16:04;96607.94;;;19.70;49.52
48216;BME280;34005;48.844;10.098;2023-07-20T06:18:32;96602.97;;;19.73;49.36
48216;BME280;34005;48.844;10.098;2023-07-20T06:21:00;96601.13;;;19.74;49.58
48216;BME280;34005;48.844;10.098;2023-07-20T06:23:28;96607.69;;;19.71;49.54
48216;BME280;34005;48.844;10.098;2023-07-20T06:25:57;96594.94;;;19.68;49.99
48216;BME280;34005;48.844;10.098;2023-07-20T06:28:25;96595.53;;;19.70;49.81
48216;BME280;34005;48.844;10.098;2023-07-20T06:30:59;96601.47;;;19.78;49.78
48216;BME280;34005;48.844;10.098;2023-07-20T06:33:27;96601.06;;;19.86;49.58
48216;BME280;34005;48.844;10.098;2023-07-20T06:35:55;96599.06;;;19.93;49.39
48216;BME280;34005;48.844;10.098;2023-07-20T06:38:23;96604.41;;;19.98;48.89
48216;BME280;34005;48.844;10.098;2023-07-20T06:40:54;96600.50;;;20.01;48.75
48216;BME280;34005;48.844;10.098;2023-07-20T06:43:23;96608.69;;;19.99;48.34
48216;BME280;34005;48.844;10.098;2023-07-20T06:45:54;96606.59;;;20.01;48.56
48216;BME280;34005;48.844;10.098;2023-07-20T06:48:22;96601.59;;;20.05;48.86
48216;BME280;34005;48.844;10.098;2023-07-20T06:50:49;96606.72;;;20.11;48.72
48216;BME280;34005;48.844;10.098;2023-07-20T06:53:17;96599.34;;;20.13;48.36
48216;BME280;34005;48.844;10.098;2023-07-20T06:55:45;96594.88;;;20.14;48.59
48216;BME280;34005;48.844;10.098;2023-07-20T06:58:13;96598.63;;;20.18;48.66
48216;BME280;34005;48.844;10.098;2023-07-20T07:00:45;96603.03;;;20.29;48.32
48216;BME280;34005;48.844;10.098;2023-07-20T07:03:13;96604.00;;;20.40;48.29
48216;BME280;34005;48.844;10.098;2023-07-20T07:05:41;96603.53;;;20.48;48.01
48216;BME280;34005;48.844;10.098;2023-07-20T07:08:09;96603.13;;;20.56;48.51
48216;BME280;34005;48.844;10.098;2023-07-20T07:10:37;96600.88;;;20.65;47.95
48216;BME280;34005;48.844;10.098;2023-07-20T07:13:05;96606.56;;;20.74;47.55
48216;BME280;34005;48.844;10.098;2023-07-20T07:15:33;96603.41;;;20.77;46.71
48216;BME280;34005;48.844;10.098;2023-07-20T07:18:04;96600.19;;;20.75;47.14
48216;BME280;34005;48.844;10.098;2023-07-20T07:20:31;96604.22;;;20.77;47.37
48216;BME280;34005;48.844;10.098;2023-07-20T07:22:59;96605.34;;;20.82;46.70
48216;BME280;34005;48.844;10.098;2023-07-20T07:25:27;96602.44;;;20.83;46.65
48216;BME280;34005;48.844;10.098;2023-07-20T07:27:55;96606.19;;;20.87;46.75
48216;BME280;34005;48.844;10.098;2023-07-20T07:30:23;96608.84;;;20.87;46.50
48216;BME280;34005;48.844;10.098;2023-07-20T07:32:51;96603.72;;;20.81;46.49
48216;BME280;34005;48.844;10.098;2023-07-20T07:35:21;96605.34;;;20.82;46.55
48216;BME280;34005;48.844;10.098;2023-07-20T07:37:49;96605.94;;;20.89;48.41
48216;BME280;34005;48.844;10.098;2023-07-20T07:40:37;96601.25;;;20.96;47.76
48216;BME280;34005;48.844;10.098;2023-07-20T07:43:05;96601.38;;;21.06;46.96
48216;BME280;34005;48.844;10.098;2023-07-20T07:45:34;96609.19;;;21.18;50.60
48216;BME280;34005;48.844;10.098;2023-07-20T07:48:03;96608.19;;;21.24;49.02
48216;BME280;34005;48.844;10.098;2023-07-20T07:50:33;96595.50;;;21.26;47.63
48216;BME280;34005;48.844;10.098;2023-07-20T07:53:01;96596.59;;;21.30;46.77
48216;BME280;34005;48.844;10.098;2023-07-20T07:55:29;96599.00;;;21.32;46.48
48216;BME280;34005;48.844;10.098;2023-07-20T07:57:57;96598.25;;;21.36;50.74
48216;BME280;34005;48.844;10.098;2023-07-20T08:00:25;96602.50;;;21.37;46.98
48216;BME280;34005;48.844;10.098;2023-07-20T08:02:53;96597.19;;;21.37;46.82
48216;BME280;34005;48.844;10.098;2023-07-20T08:05:22;96594.59;;;21.43;46.39
48216;BME280;34005;48.844;10.098;2023-07-20T08:07:51;96596.47;;;21.42;46.83
48216;BME280;34005;48.844;10.098;2023-07-20T08:10:20;96598.81;;;21.38;47.36
48216;BME280;34005;48.844;10.098;2023-07-20T08:12:48;96599.47;;;21.51;54.63
48216;BME280;34005;48.844;10.098;2023-07-20T08:15:16;96601.72;;;21.64;49.50
48216;BME280;34005;48.844;10.098;2023-07-20T08:17:44;96595.97;;;21.77;51.15
48216;BME280;34005;48.844;10.098;2023-07-20T08:20:13;96595.53;;;21.91;48.93
48216;BME280;34005;48.844;10.098;2023-07-20T08:22:40;96588.22;;;22.03;51.16
48216;BME280;34005;48.844;10.098;2023-07-20T08:25:10;96587.50;;;22.13;48.53
48216;BME280;34005;48.844;10.098;2023-07-20T08:27:38;96592.88;;;22.23;48.92
48216;BME280;34005;48.844;10.098;2023-07-20T08:30:08;96599.53;;;22.26;49.16
48216;BME280;34005;48.844;10.098;2023-07-20T08:32:36;96591.63;;;22.31;46.80
48216;BME280;34005;48.844;10.098;2023-07-20T08:35:04;96586.78;;;22.23;44.65
48216;BME280;34005;48.844;10.098;2023-07-20T08:37:32;96589.38;;;22.17;46.87
48216;BME280;34005;48.844;10.098;2023-07-20T08:40:00;96602.59;;;22.07;44.90
48216;BME280;34005;48.844;10.098;2023-07-20T08:42:32;96593.81;;;22.07;44.38
48216;BME280;34005;48.844;10.098;2023-07-20T08:45:00;96590.41;;;22.11;46.50
48216;BME280;34005;48.844;10.098;2023-07-20T08:47:29;96590.41;;;22.16;44.48
48216;BME280;34005;48.844;10.098;2023-07-20T08:49:57;96586.78;;;22.23;43.98
48216;BME280;34005;48.844;10.098;2023-07-20T08:52:27;96587.63;;;22.33;43.98
48216;BME280;34005;48.844;10.098;2023-07-20T08:54:55;96586.63;;;22.39;43.59
48216;BME280;34005;48.844;10.098;2023-07-20T08:57:23;96586.09;;;22.48;44.03
48216;BME280;34005;48.844;10.098;2023-07-20T08:59:52;96587.50;;;22.55;45.84
48216;BME280;34005;48.844;10.098;2023-07-20T09:02:25;96582.72;;;22.57;43.16
48216;BME280;34005;48.844;10.098;2023-07-20T09:04:54;96579.03;;;22.63;48.21
48216;BME280;34005;48.844;10.098;2023-07-20T09:07:23;96583.88;;;22.77;48.60
48216;BME280;34005;48.844;10.098;2023-07-20T09:09:51;96586.03;;;22.85;50.39
48216;BME280;34005;48.844;10.098;2023-07-20T09:12:19;96589.75;;;22.84;47.27
48216;BME280;34005;48.844;10.098;2023-07-20T09:14:48;96583.38;;;22.85;48.43
48216;BME280;34005;48.844;10.098;2023-07-20T09:17:17;96585.75;;;22.87;45.41
48216;BME280;34005;48.844;10.098;2023-07-20T09:19:46;96579.09;;;22.84;42.54
48216;BME280;34005;48.844;10.098;2023-07-20T09:22:15;96581.75;;;22.84;47.35
48216;BME280;34005;48.844;10.098;2023-07-20T09:24:44;96574.63;;;22.90;47.51
48216;BME280;34005;48.844;10.098;2023-07-20T09:27:12;96585.00;;;22.96;49.65
48216;BME280;34005;48.844;10.098;2023-07-20T09:29:47;96581.59;;;23.06;42.61
48216;BME280;34005;48.844;10.098;2023-07-20T09:32:20;96580.00;;;23.15;41.82
48216;BME280;34005;48.844;10.098;2023-07-20T09:34:51;96582.19;;;23.29;42.19
48216;BME280;34005;48.844;10.098;2023-07-20T09:37:20;96582.72;;;23.41;43.96
48216;BME280;34005;48.844;10.098;2023-07-20T09:39:51;96580.34;;;23.55;45.30
48216;BME280;34005;48.844;10.098;2023-07-20T09:42:22;96578.22;;;23.67;45.00
48216;BME280;34005;48.844;10.098;2023-07-20T09:44:54;96574.25;;;23.75;41.05
48216;BME280;34005;48.844;10.098;2023-07-20T09:47:25;96577.69;;;23.70;39.47
48216;BME280;34005;48.844;10.098;2023-07-20T09:49:58;96571.03;;;23.62;39.02
48216;BME280;34005;48.844;10.098;2023-07-20T09:52:30;96565.72;;;23.62;40.59
48216;BME280;34005;48.844;10.098;2023-07-20T09:55:02;96564.91;;;23.67;41.73
48216;BME280;34005;48.844;10.098;2023-07-20T09:57:32;96571.34;;;23.76;38.93
48216;BME280;34005;48.844;10.098;2023-07-20T10:00:01;96571.88;;;23.83;42.23
48216;BME280;34005;48.844;10.098;2023-07-20T10:02:41;96566.00;;;23.87;38.26
48216;BME280;34005;48.844;10.098;2023-07-20T10:05:11;96565.75;;;23.88;39.26
48216;BME280;34005;48.844;10.098;2023-07-20T10:07:44;96567.59;;;23.93;44.04
48216;BME280;34005;48.844;10.098;2023-07-20T10:10:14;96566.25;;;24.00;41.28
48216;BME280;34005;48.844;10.098;2023-07-20T10:12:46;96569.72;;;24.11;44.53
48216;BME280;34005;48.844;10.098;2023-07-20T10:15:19;96562.78;;;24.15;39.37
48216;BME280;34005;48.844;10.098;2023-07-20T10:17:58;96564.38;;;24.16;39.43
48216;BME280;34005;48.844;10.098;2023-07-20T10:20:27;96556.38;;;24.11;39.07
48216;BME280;34005;48.844;10.098;2023-07-20T10:22:57;96549.47;;;24.10;38.48
48216;BME280;34005;48.844;10.098;2023-07-20T10:25:26;96547.34;;;24.12;38.52
48216;BME280;34005;48.844;10.098;2023-07-20T10:27:55;96546.81;;;24.10;39.60
48216;BME280;34005;48.844;10.098;2023-07-20T10:30:25;96543.88;;;24.06;39.59
48216;BME280;34005;48.844;10.098;2023-07-20T10:32:54;96555.88;;;24.04;39.79
48216;BME280;34005;48.844;10.098;2023-07-20T10:35:23;96543.09;;;24.01;39.34
48216;BME280;34005;48.844;10.098;2023-07-20T10:37:54;96546.78;;;24.05;38.92
48216;BME280;34005;48.844;10.098;2023-07-20T10:40:32;96552.13;;;24.15;39.83
48216;BME280;34005;48.844;10.098;2023-07-20T10:43:02;96548.38;;;24.21;39.38
48216;BME280;34005;48.844;10.098;2023-07-20T10:45:39;96544.09;;;24.25;38.77
48216;BME280;34005;48.844;10.098;2023-07-20T10:48:16;96540.06;;;24.33;44.67
48216;BME280;34005;48.844;10.098;2023-07-20T10:51:11;96538.16;;;24.44;39.08
48216;BME280;34005;48.844;10.098;2023-07-20T10:53:40;96536.03;;;24.46;39.72
48216;BME280;34005;48.844;10.098;2023-07-20T10:56:11;96531.78;;;24.50;42.23
48216;BME280;34005;48.844;10.098;2023-07-20T10:58:39;96526.19;;;24.52;38.57
48216;BME280;34005;48.844;10.098;2023-07-20T11:01:13;96522.72;;;24.51;37.30
48216;BME280;34005;48.844;10.098;2023-07-20T11:03:48;96525.09;;;24.58;38.53
48216;BME280;34005;48.844;10.098;2023-07-20T11:06:32;96518.13;;;24.67;36.48
48216;BME280;34005;48.844;10.098;2023-07-20T11:09:07;96518.91;;;24.67;36.92
48216;BME280;34005;48.844;10.098;2023-07-20T11:11:38;96516.50;;;24.66;37.44
48216;BME280;34005;48.844;10.098;2023-07-20T11:14:07;96514.91;;;24.70;36.41
48216;BME280;34005;48.844;10.098;2023-07-20T11:16:40;96510.88;;;24.78;36.09
48216;BME280;34005;48.844;10.098;2023-07-20T11:19:17;96512.41;;;24.89;36.76
48216;BME280;34005;48.844;10.098;2023-07-20T11:21:50;96508.59;;;25.00;36.23
48216;BME280;34005;48.844;10.098;2023-07-20T11:24:30;96514.41;;;25.07;36.49
48216;BME280;34005;48.844;10.098;2023-07-20T11:26:58;96504.78;;;25.12;36.59
48216;BME280;34005;48.844;10.098;2023-07-20T11:29:27;96495.16;;;25.16;36.09
48216;BME280;34005;48.844;10.098;2023-07-20T11:31:59;96503.69;;;25.18;36.39
48216;BME280;34005;48.844;10.098;2023-07-20T11:34:30;96494.91;;;25.12;35.90
48216;BME280;34005;48.844;10.098;2023-07-20T11:36:59;96492.03;;;25.03;36.46
48216;BME280;34005;48.844;10.098;2023-07-20T11:39:29;96492.00;;;25.08;39.16
48216;BME280;34005;48.844;10.098;2023-07-20T11:41:57;96499.94;;;25.19;37.27
48216;BME280;34005;48.844;10.098;2023-07-20T11:44:26;96494.56;;;25.29;36.80
48216;BME280;34005;48.844;10.098;2023-07-20T11:47:01;96497.41;;;25.38;36.10
48216;BME280;34005;48.844;10.098;2023-07-20T11:49:34;96493.38;;;25.45;40.16
48216;BME280;34005;48.844;10.098;2023-07-20T11:52:03;96490.13;;;25.48;35.50
48216;BME280;34005;48.844;10.098;2023-07-20T11:54:32;96481.78;;;25.55;35.86
48216;BME280;34005;48.844;10.098;2023-07-20T11:57:00;96483.63;;;25.60;34.84
48216;BME280;34005;48.844;10.098;2023-07-20T11:59:28;96488.50;;;25.53;33.48
48216;BME280;34005;48.844;10.098;2023-07-20T12:01:58;96492.09;;;25.38;34.26
48216;BME280;34005;48.844;10.098;2023-07-20T12:04:28;96481.78;;;25.26;33.72
48216;BME280;34005;48.844;10.098;2023-07-20T12:06:58;96472.69;;;25.27;34.18
48216;BME280;34005;48.844;10.098;2023-07-20T12:09:26;96480.63;;;25.37;34.12
48216;BME280;34005;48.844;10.098;2023-07-20T12:12:11;96474.16;;;25.43;37.13
48216;BME280;34005;48.844;10.098;2023-07-20T12:14:39;96476.31;;;25.41;34.74
48216;BME280;34005;48.844;10.098;2023-07-20T12:17:08;96474.69;;;25.40;38.96
48216;BME280;34005;48.844;10.098;2023-07-20T12:19:38;96469.94;;;25.37;34.22
48216;BME280;34005;48.844;10.098;2023-07-20T12:22:07;96472.41;;;25.28;36.71
48216;BME280;34005;48.844;10.098;2023-07-20T12:24:35;96472.97;;;25.25;35.53
48216;BME280;34005;48.844;10.098;2023-07-20T12:27:03;96468.44;;;25.26;39.09
48216;BME280;34005;48.844;10.098;2023-07-20T12:29:31;96468.38;;;25.31;36.22
48216;BME280;34005;48.844;10.098;2023-07-20T12:32:03;96457.66;;;25.36;35.50
48216;BME280;34005;48.844;10.098;2023-07-20T12:34:30;96455.28;;;25.35;34.23
48216;BME280;34005;48.844;10.098;2023-07-20T12:36:58;96460.63;;;25.35;36.77
48216;BME280;34005;48.844;10.098;2023-07-20T12:39:27;96452.09;;;25.33;35.88
48216;BME280;34005;48.844;10.098;2023-07-20T12:41:55;96453.19;;;25.26;33.94
48216;BME280;34005;48.844;10.098;2023-07-20T12:44:22;96451.38;;;25.22;33.80
48216;BME280;34005;48.844;10.098;2023-07-20T12:46:50;96451.88;;;25.19;33.25
48216;BME280;34005;48.844;10.098;2023-07-20T12:49:17;96451.41;;;25.12;34.02
48216;BME280;34005;48.844;10.098;2023-07-20T12:51:45;96448.31;;;24.99;33.84
48216;BME280;34005;48.844;10.098;2023-07-20T12:54:13;96449.44;;;24.88;34.40
48216;BME280;34005;48.844;10.098;2023-07-20T12:56:42;96446.28;;;24.81;32.96
48216;BME280;34005;48.844;10.098;2023-07-20T12:59:12;96444.69;;;24.80;33.51
48216;BME280;34005;48.844;10.098;2023-07-20T13:01:40;96443.88;;;24.79;33.33
48216;BME280;34005;48.844;10.098;2023-07-20T13:04:10;96434.81;;;24.80;36.02
48216;BME280;34005;48.844;10.098;2023-07-20T13:06:39;96435.06;;;24.84;34.29
48216;BME280;34005;48.844;10.098;2023-07-20T13:09:08;96432.13;;;24.85;32.59
48216;BME280;34005;48.844;10.098;2023-07-20T13:11:35;96435.06;;;24.84;32.60
48216;BME280;34005;48.844;10.098;2023-07-20T13:14:05;96426.50;;;24.87;32.47
48216;BME280;34005;48.844;10.098;2023-07-20T13:16:32;96430.75;;;24.93;32.44
48216;BME280;34005;48.844;10.098;2023-07-20T13:19:00;96429.94;;;24.93;32.02
48216;BME280;34005;48.844;10.098;2023-07-20T13:21:28;96421.13;;;24.92;33.65
48216;BME280;34005;48.844;10.098;2023-07-20T13:23:55;96420.91;;;24.88;31.78
48216;BME280;34005;48.844;10.098;2023-07-20T13:26:23;96422.78;;;24.83;31.00
48216;BME280;34005;48.844;10.098;2023-07-20T13:28:51;96420.19;;;24.78;32.28
48216;BME280;34005;48.844;10.098;2023-07-20T13:31:22;96420.19;;;24.73;33.15
48216;BME280;34005;48.844;10.098;2023-07-20T13:33:50;96416.72;;;24.72;32.39
48216;BME280;34005;48.844;10.098;2023-07-20T13:36:25;96409.00;;;24.71;31.87
48216;BME280;34005;48.844;10.098;2023-07-20T13:38:55;96404.72;;;24.75;31.99
48216;BME280;34005;48.844;10.098;2023-07-20T13:41:23;96416.94;;;24.81;36.55
48216;BME280;34005;48.844;10.098;2023-07-20T13:43:50;96406.22;;;24.86;35.13
48216;BME280;34005;48.844;10.098;2023-07-20T13:46:18;96406.72;;;24.93;36.14
48216;BME280;34005;48.844;10.098;2023-07-20T13:49:07;96408.28;;;24.99;32.02
48216;BME280;34005;48.844;10.098;2023-07-20T13:51:38;96401.28;;;25.03;31.67